Time;durP1;ratioP1;P1;durP2;ratioP2;P2;SDS_P1;SDS_P2;PMS_P1;PMS_P2;Temp;Humidity;BMP_temperature;BMP_pressure;BME280_temperature;BME280_humidity;BME280_pressure;Samples;Min_cycle;Max_cycle;Signal;HPM_P1;HPM_P2
2022/06/06 00:01:53;;;;;;;0.40;0.40;;;16.60;92.60;15.90;98413.00;;;;5098581;28;20263;-75
2022/06/06 00:04:22;;;;;;;0.53;0.53;;;16.50;93.00;15.80;98410.00;;;;5103511;28;20281;-77
2022/06/06 00:06:52;;;;;;;0.57;0.57;;;16.40;93.30;15.70;98411.00;;;;5096204;28;20187;-76
2022/06/06 00:09:19;;;;;;;0.57;0.57;;;16.40;93.70;15.70;98405.00;;;;5095405;28;20316;-75
2022/06/06 00:11:49;;;;;;;0.53;0.53;;;16.30;93.90;15.80;98398.00;;;;5095343;28;20327;-76
2022/06/06 00:14:18;;;;;;;0.63;0.63;;;16.30;94.20;15.70;98406.00;;;;5095249;28;20202;-76
2022/06/06 00:16:46;;;;;;;0.60;0.60;;;16.30;94.10;15.60;98406.00;;;;5095125;28;20227;-76
2022/06/06 00:19:13;;;;;;;0.50;0.50;;;16.20;93.90;15.60;98402.00;;;;5095193;28;20195;-76
2022/06/06 00:21:41;;;;;;;0.50;0.50;;;16.20;94.50;15.60;98400.00;;;;5095069;28;20226;-77
2022/06/06 00:24:12;;;;;;;0.70;0.70;;;16.20;94.40;15.60;98400.00;;;;5095107;28;20221;-76
2022/06/06 00:26:39;;;;;;;0.50;0.50;;;16.10;94.70;15.60;98387.00;;;;5095032;28;20201;-76
2022/06/06 00:29:07;;;;;;;0.70;0.70;;;16.20;94.60;15.50;98382.00;;;;5094965;28;20249;-77
2022/06/06 00:37:13;;;;;;;0.90;0.90;;;16.00;95.10;15.40;98393.00;;;;5077099;28;20203;-76
2022/06/06 00:39:42;;;;;;;0.70;0.70;;;16.00;95.30;15.40;98397.00;;;;5094844;28;20222;-76
2022/06/06 00:42:16;;;;;;;0.73;0.73;;;16.00;95.60;15.50;98390.00;;;;5094773;28;20218;-76
2022/06/06 00:44:43;;;;;;;0.90;0.90;;;16.00;95.20;15.60;98389.00;;;;5094844;28;20323;-75
2022/06/06 00:47:24;;;;;;;0.60;0.60;;;16.10;94.90;15.60;98389.00;;;;5094776;28;20209;-76
2022/06/06 00:50:00;;;;;;;0.90;0.90;;;16.20;94.10;15.70;98386.00;;;;5094573;28;20257;-76
2022/06/06 00:52:37;;;;;;;0.70;0.70;;;16.20;94.30;15.60;98382.00;;;;5076854;28;20198;-77
2022/06/06 00:55:10;;;;;;;0.50;0.50;;;16.10;94.10;15.60;98384.00;;;;5094578;28;20199;-76
2022/06/06 00:57:43;;;;;;;0.77;0.77;;;16.20;94.10;15.60;98371.00;;;;5094662;28;20728;-76
2022/06/06 01:00:17;;;;;;;0.40;0.40;;;16.20;94.20;15.60;98377.00;;;;5094538;28;20281;-76
2022/06/06 01:02:53;;;;;;;0.50;0.50;;;16.20;94.30;15.60;98368.00;;;;5093608;28;20194;-76
2022/06/06 01:05:23;;;;;;;0.73;0.73;;;16.10;94.70;15.60;98362.00;;;;5094487;28;20183;-76
2022/06/06 01:07:50;;;;;;;0.70;0.70;;;16.20;93.70;15.60;98378.00;;;;5094283;28;20229;-76
2022/06/06 01:10:19;;;;;;;0.80;0.80;;;16.10;94.40;15.70;98381.00;;;;5094351;28;20263;-76
2022/06/06 01:12:50;;;;;;;0.50;0.50;;;16.20;94.10;15.50;98375.00;;;;5094255;28;20598;-76
2022/06/06 01:15:23;;;;;;;0.70;0.70;;;16.10;94.10;15.50;98372.00;;;;5094267;28;20199;-76
2022/06/06 01:18:05;;;;;;;1.23;0.70;;;16.00;95.40;15.40;98361.00;;;;5094279;28;20229;-76
2022/06/06 01:21:08;;;;;;;0.57;0.57;;;16.00;95.00;15.30;98360.00;;;;5094351;28;20202;-76
2022/06/06 01:24:11;;;;;;;0.57;0.57;;;16.00;95.10;15.20;98355.00;;;;5076683;28;20238;-76
2022/06/06 01:27:09;;;;;;;0.70;0.70;;;15.90;95.50;15.20;98357.00;;;;5094249;28;20193;-76
2022/06/06 01:29:45;;;;;;;0.53;0.53;;;15.90;95.70;15.30;98357.00;;;;5094012;28;20665;-76
2022/06/06 01:32:19;;;;;;;0.50;0.50;;;15.90;96.30;15.20;98354.00;;;;5098221;28;20220;-76
2022/06/06 01:34:48;;;;;;;0.83;0.83;;;15.80;96.10;15.20;98352.00;;;;5095815;28;20295;-75
2022/06/06 01:37:37;;;;;;;0.97;0.97;;;15.80;96.30;15.10;98360.00;;;;5094240;28;20556;-76
2022/06/06 01:40:09;;;;;;;0.97;0.97;;;15.80;96.70;15.10;98351.00;;;;5076307;28;20210;-76
2022/06/06 01:42:48;;;;;;;0.60;0.60;;;15.80;97.20;15.10;98356.00;;;;5093164;28;20202;-76
2022/06/06 01:45:27;;;;;;;0.90;0.90;;;15.80;97.20;15.00;98351.00;;;;5093987;28;20265;-76
2022/06/06 01:48:02;;;;;;;0.50;0.50;;;15.60;97.60;14.90;98328.00;;;;5093877;28;20206;-76
2022/06/06 01:50:31;;;;;;;0.70;0.70;;;15.60;97.80;14.90;98345.00;;;;5093820;28;20206;-76
2022/06/06 01:53:02;;;;;;;0.33;0.33;;;15.60;97.70;15.00;98344.00;;;;5093988;28;20630;-76
2022/06/06 01:55:31;;;;;;;0.60;0.60;;;15.50;97.40;14.90;98352.00;;;;5094038;28;20217;-76
2022/06/06 01:58:02;;;;;;;0.50;0.50;;;15.50;96.50;15.00;98343.00;;;;5093695;28;20235;-76
2022/06/06 02:00:33;;;;;;;0.60;0.60;;;15.60;96.40;14.80;98345.00;;;;5093850;28;20304;-75
2022/06/06 02:03:02;;;;;;;0.70;0.70;;;15.40;96.70;14.80;98335.00;;;;5093986;28;20227;-76
2022/06/06 02:05:29;;;;;;;0.53;0.53;;;15.40;98.10;14.80;98338.00;;;;5102276;28;20294;-76
2022/06/06 02:07:57;;;;;;;0.73;0.73;;;15.40;97.30;14.90;98315.00;;;;5077584;28;20309;-77
2022/06/06 02:10:24;;;;;;;0.63;0.63;;;15.40;97.20;14.80;98338.00;;;;5094134;28;20233;-76
2022/06/06 02:12:52;;;;;;;0.90;0.90;;;15.40;96.90;14.80;98344.00;;;;5093557;28;20186;-76
2022/06/06 02:15:23;;;;;;;0.80;0.80;;;15.30;97.20;14.80;98357.00;;;;5093435;28;20205;-76
2022/06/06 02:17:52;;;;;;;0.63;0.63;;;15.30;97.30;14.60;98340.00;;;;5093509;28;20277;-76
2022/06/06 02:20:26;;;;;;;1.20;1.20;;;15.30;97.10;14.70;98346.00;;;;5093343;28;20218;-76
2022/06/06 02:22:53;;;;;;;1.13;1.13;;;15.30;97.20;14.70;98333.00;;;;5093535;28;20221;-76
2022/06/06 02:25:22;;;;;;;0.70;0.70;;;15.20;97.60;14.70;98335.00;;;;5093417;28;20230;-76
2022/06/06 02:27:50;;;;;;;0.93;0.93;;;15.30;97.60;14.70;98326.00;;;;5093278;28;20194;-76
2022/06/06 02:30:24;;;;;;;1.33;1.07;;;15.20;97.90;14.60;98337.00;;;;5093309;28;20199;-76
2022/06/06 02:32:51;;;;;;;0.50;0.50;;;15.20;97.20;14.50;98329.00;;;;5075546;28;20194;-76
2022/06/06 02:35:23;;;;;;;0.60;0.60;;;15.10;98.20;14.50;98320.00;;;;5093221;28;20226;-76
2022/06/06 02:37:53;;;;;;;0.53;0.53;;;15.10;97.80;14.60;98316.00;;;;5093126;28;20738;-76
2022/06/06 02:40:23;;;;;;;0.60;0.60;;;15.10;98.30;14.60;98323.00;;;;5093195;28;20273;-76
2022/06/06 02:42:50;;;;;;;0.67;0.67;;;15.10;98.50;14.60;98319.00;;;;5075208;28;20247;-76
2022/06/06 02:45:17;;;;;;;0.97;0.87;;;15.10;98.60;14.50;98317.00;;;;5093087;28;20514;-76
2022/06/06 02:47:46;;;;;;;0.73;0.73;;;15.10;98.50;14.50;98319.00;;;;5093026;28;20243;-76
2022/06/06 02:50:16;;;;;;;0.70;0.70;;;15.10;98.30;14.40;98322.00;;;;5093071;28;20191;-74
2022/06/06 02:52:43;;;;;;;0.80;0.80;;;15.00;98.00;14.50;98319.00;;;;5092990;28;20348;-75
2022/06/06 02:55:12;;;;;;;0.87;0.87;;;15.10;98.10;14.50;98326.00;;;;5095384;28;20327;-76
2022/06/06 02:57:40;;;;;;;0.70;0.70;;;15.10;97.90;14.40;98316.00;;;;5096503;28;20513;-76
2022/06/06 03:00:10;;;;;;;0.93;0.93;;;15.00;97.50;14.30;98320.00;;;;5096311;28;20214;-75
2022/06/06 03:02:37;;;;;;;0.80;0.80;;;15.00;97.70;14.30;98329.00;;;;5096700;28;20606;-76
2022/06/06 03:05:05;;;;;;;0.53;0.53;;;14.80;97.90;14.20;98320.00;;;;5096320;28;20282;-76
2022/06/06 03:07:50;;;;;;;1.33;0.90;;;14.80;97.70;14.20;98325.00;;;;5096306;28;20633;-76
2022/06/06 03:10:32;;;;;;;0.77;0.77;;;14.70;97.90;14.10;98333.00;;;;5096341;28;20233;-76
2022/06/06 03:13:25;;;;;;;3.80;2.57;;;14.70;97.50;14.10;98334.00;;;;5096322;28;20277;-76
2022/06/06 03:22:18;;;;;;;0.60;0.60;;;14.60;97.40;14.00;98350.00;;;;5098455;28;20226;-76
2022/06/06 03:25:02;;;;;;;0.60;0.60;;;14.60;98.10;13.90;98363.00;;;;5099458;28;20287;-76
2022/06/06 03:27:44;;;;;;;0.70;0.70;;;14.50;98.60;13.80;98369.00;;;;5095995;28;20251;-76
2022/06/06 03:30:28;;;;;;;1.13;1.13;;;14.40;99.10;13.90;98365.00;;;;5095987;28;20257;-76
2022/06/06 03:33:13;;;;;;;0.70;0.70;;;14.50;98.40;13.80;98368.00;;;;5095920;28;20226;-75
2022/06/06 03:35:47;;;;;;;0.80;0.80;;;14.40;98.30;13.80;98362.00;;;;5095955;28;20221;-76
2022/06/06 03:38:26;;;;;;;0.70;0.70;;;14.40;99.20;13.90;98383.00;;;;5095785;28;20230;-75
2022/06/06 03:41:10;;;;;;;0.57;0.57;;;14.40;99.40;14.00;98386.00;;;;5096112;28;20358;-76
2022/06/06 03:43:54;;;;;;;0.43;0.43;;;14.50;99.70;13.90;98389.00;;;;5095695;28;20289;-76
2022/06/06 03:46:34;;;;;;;0.57;0.57;;;14.50;99.60;14.00;98405.00;;;;5095823;28;20526;-76
2022/06/06 03:49:18;;;;;;;1.77;1.67;;;14.60;99.90;14.10;98388.00;;;;5077819;28;20222;-76
2022/06/06 03:52:10;;;;;;;1.70;1.27;;;14.70;99.90;14.20;98393.00;;;;5095691;28;20281;-76
2022/06/06 03:54:50;;;;;;;0.50;0.50;;;14.80;99.90;14.30;98391.00;;;;5095719;28;20266;-76
2022/06/06 03:57:23;;;;;;;0.67;0.67;;;14.80;99.90;14.40;98397.00;;;;5095780;28;20552;-76
2022/06/06 03:59:55;;;;;;;0.83;0.83;;;15.00;99.90;14.50;98397.00;;;;5095696;28;20257;-75
2022/06/06 04:02:28;;;;;;;0.70;0.70;;;15.00;99.90;14.40;98394.00;;;;5095662;28;20300;-76
2022/06/06 04:04:59;;;;;;;0.63;0.63;;;15.00;99.90;14.50;98384.00;;;;5095650;28;20222;-76
2022/06/06 04:07:26;;;;;;;0.70;0.70;;;15.00;99.90;14.40;98381.00;;;;5103309;28;20321;-75
2022/06/06 04:09:53;;;;;;;0.50;0.50;;;15.00;99.80;14.50;98386.00;;;;5097646;28;20218;-77
2022/06/06 04:12:53;;;;;;;5.30;0.80;;;15.10;99.90;14.60;98385.00;;;;5077951;28;20240;-76
2022/06/06 04:15:28;;;;;;;0.90;0.87;;;15.10;99.90;14.70;98393.00;;;;5095416;28;20281;-76
2022/06/06 04:18:16;;;;;;;0.73;0.73;;;15.20;99.90;14.70;98391.00;;;;5095135;28;20226;-76
2022/06/06 04:21:06;;;;;;;0.93;0.93;;;15.20;99.70;14.60;98392.00;;;;5095251;28;20202;-76
2022/06/06 04:23:58;;;;;;;0.60;0.60;;;15.20;99.50;14.70;98389.00;;;;5078166;28;20249;-76
2022/06/06 04:26:36;;;;;;;0.47;0.47;;;15.20;99.70;14.70;98396.00;;;;5102547;28;20203;-78
2022/06/06 04:29:15;;;;;;;0.70;0.70;;;15.30;99.60;14.60;98384.00;;;;5095712;28;20226;-77
2022/06/06 04:31:54;;;;;;;0.93;0.80;;;15.20;99.80;14.70;98378.00;;;;5095103;28;20607;-76
2022/06/06 04:34:34;;;;;;;0.60;0.60;;;15.30;99.90;14.80;98382.00;;;;5094943;28;20222;-74
2022/06/06 04:37:11;;;;;;;0.63;0.63;;;15.30;99.90;14.90;98384.00;;;;5095133;28;20209;-76
2022/06/06 04:39:55;;;;;;;0.40;0.40;;;15.50;99.90;14.90;98382.00;;;;5094961;28;20316;-76
2022/06/06 04:42:33;;;;;;;0.73;0.73;;;15.50;99.40;15.00;98386.00;;;;5094925;28;20205;-76
2022/06/06 04:45:15;;;;;;;1.83;1.73;;;15.50;99.60;15.10;98385.00;;;;5094908;28;20198;-76
2022/06/06 04:47:43;;;;;;;0.50;0.50;;;15.60;99.50;15.20;98373.00;;;;5094741;28;20194;-76
2022/06/06 04:50:14;;;;;;;0.87;0.87;;;15.70;99.40;15.30;98388.00;;;;5094593;28;20253;-76
2022/06/06 04:52:48;;;;;;;1.17;1.07;;;15.70;98.80;15.10;98385.00;;;;5094657;28;20660;-76
2022/06/06 04:55:18;;;;;;;0.97;0.97;;;15.80;99.30;15.20;98389.00;;;;5094647;28;20207;-76
2022/06/06 04:57:51;;;;;;;1.20;1.10;;;15.80;99.20;15.40;98393.00;;;;5094543;28;20218;-76
2022/06/06 05:00:20;;;;;;;1.90;1.43;;;15.90;98.90;15.40;98376.00;;;;5094530;28;20187;-76
2022/06/06 05:02:47;;;;;;;3.83;1.07;;;16.00;99.20;15.60;98391.00;;;;5094388;28;20226;-76
2022/06/06 05:05:14;;;;;;;1.13;1.03;;;16.00;98.90;15.70;98398.00;;;;5076662;28;20637;-76
2022/06/06 05:08:13;;;;;;;0.70;0.70;;;16.10;98.80;15.80;98396.00;;;;5094367;28;20199;-76
2022/06/06 05:11:08;;;;;;;0.90;0.90;;;16.20;98.60;16.00;98393.00;;;;5094439;28;20219;-76
2022/06/06 05:14:20;;;;;;;0.60;0.60;;;16.40;98.30;16.10;98393.00;;;;5094289;28;20326;-76
2022/06/06 05:17:22;;;;;;;0.60;0.60;;;16.50;98.20;16.20;98398.00;;;;5095869;28;20198;-76
2022/06/06 05:20:09;;;;;;;1.30;1.27;;;16.60;97.80;16.20;98388.00;;;;5094157;28;20225;-76
2022/06/06 05:23:06;;;;;;;1.10;1.10;;;16.70;96.50;16.30;98399.00;;;;5094152;28;20206;-74
2022/06/06 05:25:57;;;;;;;0.70;0.70;;;16.80;96.40;16.40;98413.00;;;;5076266;28;20264;-76
2022/06/06 05:29:05;;;;;;;0.60;0.60;;;16.90;95.80;16.50;98408.00;;;;5094141;28;20222;-76
2022/06/06 05:31:50;;;;;;;0.80;0.80;;;16.90;95.50;16.60;98412.00;;;;5094196;28;20313;-74
2022/06/06 05:34:26;;;;;;;1.07;1.07;;;17.00;94.80;16.60;98418.00;;;;5101264;28;20199;-77
2022/06/06 05:37:15;;;;;;;0.83;0.83;;;17.10;95.00;16.70;98415.00;;;;5094351;28;20238;-75
2022/06/06 05:40:07;;;;;;;0.90;0.90;;;17.10;94.80;16.80;98418.00;;;;5093951;28;20191;-75
2022/06/06 05:42:58;;;;;;;0.50;0.50;;;17.20;94.90;16.90;98409.00;;;;5093908;28;20230;-74
2022/06/06 05:45:40;;;;;;;0.40;0.40;;;17.40;94.90;17.00;98416.00;;;;5094142;28;20660;-76
2022/06/06 05:48:28;;;;;;;0.77;0.67;;;17.50;94.10;17.20;98422.00;;;;5076040;28;20564;-74
2022/06/06 05:51:16;;;;;;;0.40;0.40;;;17.60;93.30;17.30;98425.00;;;;5094003;28;20202;-74
2022/06/06 05:54:14;;;;;;;0.73;0.73;;;17.70;92.70;17.40;98423.00;;;;5093771;28;20288;-75
2022/06/06 05:57:15;;;;;;;0.90;0.90;;;17.80;92.20;17.60;98428.00;;;;5093848;28;20194;-75
2022/06/06 06:00:06;;;;;;;0.63;0.63;;;18.00;92.20;17.70;98422.00;;;;5093916;28;20300;-75
2022/06/06 06:03:05;;;;;;;0.50;0.50;;;18.10;92.20;17.80;98431.00;;;;5093669;28;20285;-75
2022/06/06 06:05:50;;;;;;;0.90;0.90;;;18.20;90.30;17.80;98420.00;;;;5093483;28;20214;-75
2022/06/06 06:08:50;;;;;;;0.70;0.70;;;18.30;91.50;18.00;98430.00;;;;5093701;28;20199;-75
2022/06/06 06:11:48;;;;;;;1.17;0.93;;;18.30;90.80;18.10;98432.00;;;;5093534;28;20253;-74
2022/06/06 06:14:34;;;;;;;0.70;0.70;;;18.50;89.20;18.10;98428.00;;;;5093740;28;20274;-75
2022/06/06 06:17:04;;;;;;;1.37;1.30;;;18.50;88.70;18.10;98431.00;;;;5093481;28;20517;-75
2022/06/06 06:19:41;;;;;;;0.53;0.53;;;18.60;88.10;18.30;98431.00;;;;5093483;28;20202;-75
2022/06/06 06:22:10;;;;;;;0.57;0.57;;;18.60;89.50;18.20;98431.00;;;;5093464;28;20312;-75
2022/06/06 06:24:42;;;;;;;0.60;0.60;;;18.70;88.20;18.40;98439.00;;;;5094304;28;20202;-75
2022/06/06 06:27:12;;;;;;;0.53;0.53;;;18.80;87.90;18.40;98434.00;;;;5102242;28;20233;-76
2022/06/06 06:29:41;;;;;;;0.60;0.60;;;18.90;87.10;18.50;98446.00;;;;5096059;28;20214;-76
2022/06/06 06:32:40;;;;;;;0.70;0.70;;;19.00;85.90;18.70;98444.00;;;;5097211;28;20290;-76
2022/06/06 06:35:20;;;;;;;0.80;0.80;;;19.10;85.90;18.90;98448.00;;;;5096889;28;20209;-75
2022/06/06 06:38:24;;;;;;;0.53;0.53;;;19.30;83.40;19.00;98461.00;;;;5096793;28;20303;-75
2022/06/06 06:41:05;;;;;;;0.60;0.60;;;19.30;82.90;19.00;98467.00;;;;5096784;28;20289;-75
2022/06/06 06:43:51;;;;;;;0.53;0.53;;;19.40;82.60;19.10;98468.00;;;;5096634;28;20240;-75
2022/06/06 06:46:26;;;;;;;0.50;0.50;;;19.50;81.90;19.20;98479.00;;;;5096775;28;20202;-75
2022/06/06 06:49:10;;;;;;;0.67;0.67;;;19.50;81.80;19.20;98477.00;;;;5078676;28;20257;-75
2022/06/06 06:51:45;;;;;;;0.53;0.53;;;19.60;80.70;19.30;98482.00;;;;5096621;28;20218;-75
2022/06/06 06:54:46;;;;;;;1.17;1.17;;;19.70;79.80;19.40;98482.00;;;;5096798;28;20190;-75
2022/06/06 06:57:38;;;;;;;0.60;0.60;;;19.80;79.90;19.40;98465.00;;;;5096598;28;20190;-76
2022/06/06 07:00:11;;;;;;;1.30;1.00;;;19.80;79.30;19.60;98484.00;;;;5096288;28;20630;-76
2022/06/06 07:09:08;;;;;;;0.50;0.50;;;20.10;77.40;19.70;98475.00;;;;5078385;28;20317;-75
2022/06/06 07:11:48;;;;;;;0.70;0.70;;;20.10;78.30;19.80;98477.00;;;;5096090;28;20301;-73
2022/06/06 07:14:40;;;;;;;0.80;0.80;;;20.20;77.00;19.70;98476.00;;;;5096176;28;20203;-74
2022/06/06 07:17:11;;;;;;;4.00;1.63;;;20.10;76.90;19.60;98474.00;;;;5096156;28;20649;-77
2022/06/06 07:19:47;;;;;;;0.93;0.93;;;20.10;77.60;19.80;98461.00;;;;5096226;28;20199;-77
2022/06/06 07:22:18;;;;;;;0.80;0.80;;;20.20;77.50;20.00;98433.00;;;;5096126;28;20202;-77
2022/06/06 07:24:54;;;;;;;0.80;0.80;;;20.30;77.30;20.10;98468.00;;;;5096075;28;20454;-75
2022/06/06 07:27:21;;;;;;;0.57;0.57;;;20.40;76.10;20.30;98461.00;;;;5096044;28;20202;-75
2022/06/06 07:29:48;;;;;;;0.80;0.80;;;20.60;76.20;20.40;98463.00;;;;5095892;28;20219;-77
2022/06/06 07:32:38;;;;;;;1.03;1.03;;;20.70;76.90;20.50;98455.00;;;;5095953;28;20622;-75
2022/06/06 07:35:18;;;;;;;0.80;0.80;;;20.90;75.90;20.60;98455.00;;;;5095814;28;20218;-74
2022/06/06 07:38:04;;;;;;;0.70;0.70;;;20.90;74.00;20.50;98452.00;;;;5095934;28;20664;-75
2022/06/06 07:40:47;;;;;;;0.70;0.70;;;20.90;73.50;20.60;98452.00;;;;5094698;28;20645;-76
2022/06/06 07:43:45;;;;;;;0.67;0.67;;;21.00;73.50;20.60;98460.00;;;;5095725;28;20202;-76
2022/06/06 07:46:25;;;;;;;0.63;0.63;;;21.00;74.10;20.60;98455.00;;;;5095853;28;20194;-76
2022/06/06 07:49:03;;;;;;;0.80;0.80;;;21.00;72.50;20.70;98461.00;;;;5095770;28;20226;-74
2022/06/06 07:51:40;;;;;;;0.50;0.50;;;21.10;73.30;20.70;98455.00;;;;5095873;28;20202;-75
2022/06/06 07:54:23;;;;;;;0.80;0.80;;;21.10;73.10;20.90;98451.00;;;;5098130;28;20212;-75
2022/06/06 07:57:12;;;;;;;0.60;0.60;;;21.20;71.80;20.50;98436.00;;;;5103236;28;20230;-77
2022/06/06 07:59:55;;;;;;;0.50;0.50;;;;;20.90;98450.00;;;;5096486;28;20281;-75
2022/06/06 08:02:46;;;;;;;3.20;0.83;;;;;20.80;98443.00;;;;5095556;28;20195;-74
2022/06/06 08:05:41;;;;;;;0.50;0.50;;;;;21.10;98443.00;;;;5079434;28;20249;-74
2022/06/06 08:08:16;;;;;;;0.50;0.50;;;;;21.30;98443.00;;;;5095476;28;20206;-76
2022/06/06 08:10:44;;;;;;;0.67;0.67;;;;;21.30;98444.00;;;;5077663;28;20218;-77
2022/06/06 08:13:25;;;;;;;0.50;0.50;;;;;21.40;98443.00;;;;5095357;28;20259;-77
2022/06/06 08:16:18;;;;;;;0.73;0.73;;;;;21.60;98441.00;;;;5081024;28;20244;-75
2022/06/06 08:19:15;;;;;;;0.80;0.80;;;;;21.60;98440.00;;;;5095150;28;20583;-74
2022/06/06 08:21:46;;;;;;;0.90;0.90;;;;;21.90;98439.00;;;;5095253;28;20684;-77
2022/06/06 08:24:18;;;;;;;0.65;0.65;;;;;22.00;98439.00;;;;5095143;28;20561;-75
2022/06/06 08:26:48;;;;;;;0.60;0.60;;;;;21.90;98445.00;;;;5095067;28;20222;-75
2022/06/06 08:29:17;;;;;;;0.52;0.52;;;;;22.10;98442.00;;;;5077222;28;20263;-76
2022/06/06 08:31:44;;;;;;;0.90;0.90;;;;;22.30;98443.00;;;;5094958;28;20218;-77
2022/06/06 08:34:12;;;;;;;0.73;0.73;;;;;22.00;98425.00;;;;5095076;28;20194;-77
2022/06/06 08:37:10;;;;;;;0.80;0.80;;;;;22.10;98437.00;;;;5094916;28;20673;-78
2022/06/06 08:39:46;;;;;;;0.82;0.82;;;;;22.30;98442.00;;;;5094937;28;20205;-76
2022/06/06 08:42:29;;;;;;;0.98;0.98;;;;;22.30;98437.00;;;;5094865;28;20546;-82
2022/06/06 08:45:20;;;;;;;0.85;0.85;;;;;22.30;98434.00;;;;5095014;28;20202;-77
2022/06/06 08:47:57;;;;;;;0.60;0.60;;;;;22.20;98431.00;;;;5094850;28;20218;-76
2022/06/06 08:50:46;;;;;;;0.47;0.47;;;;;22.00;98429.00;;;;5094867;28;20233;-75
2022/06/06 08:53:50;;;;;;;0.93;0.93;;;;;21.80;98432.00;;;;5094276;28;20301;-77
2022/06/06 08:56:50;;;;;;;0.50;0.50;;;;;21.40;98433.00;;;;5094663;28;20523;-76
2022/06/06 08:59:53;;;;;;;0.43;0.43;;;;;21.60;98428.00;;;;5094431;28;20210;-77
2022/06/06 09:03:11;;;;;;;0.50;0.50;;;;;21.60;98435.00;;;;5094250;28;20202;-76
2022/06/06 09:06:13;;;;;;;0.83;0.83;;;;;21.30;98429.00;;;;5094513;28;20221;-77
2022/06/06 09:09:28;;;;;;;0.33;0.33;;;;;21.40;98430.00;;;;5094488;28;20278;-77
2022/06/06 09:12:29;;;;;;;0.50;0.50;;;;;21.30;98423.00;;;;5094518;28;20553;-77
2022/06/06 09:15:25;;;;;;;0.80;0.80;;;;;21.40;98428.00;;;;5090859;28;20229;-79
2022/06/06 09:18:39;;;;;;;0.40;0.40;;;;;21.50;98422.00;;;;5060655;28;20244;-77
2022/06/06 09:21:42;;;;;;;0.50;0.50;;;;;21.50;98417.00;;;;5094790;28;20199;-77
2022/06/06 09:24:58;;;;;;;0.70;0.70;;;;;21.60;98414.00;;;;5094281;28;20232;-77
2022/06/06 09:28:11;;;;;;;0.90;0.90;;;;;21.60;98413.00;;;;5077541;28;20190;-79
2022/06/06 09:31:36;;;;;;;0.70;0.70;;;;;21.60;98408.00;;;;5094168;28;20218;-76
2022/06/06 09:34:48;;;;;;;0.50;0.50;;;;;21.90;98417.00;;;;5093949;28;20214;-75
2022/06/06 09:37:37;;;;;;;0.63;0.63;;;;;21.70;98409.00;;;;5093927;28;20388;-76
2022/06/06 09:40:19;;;;;;;0.40;0.40;;;;;21.90;98407.00;;;;5094107;28;20226;-76
2022/06/06 09:43:18;;;;;;;0.50;0.50;;;;;21.90;98401.00;;;;5094242;28;20259;-74
2022/06/06 09:46:17;;;;;;;0.40;0.40;;;;;22.10;98406.00;;;;5097464;28;20248;-75
2022/06/06 09:49:26;;;;;;;0.60;0.60;;;;;22.20;98407.00;;;;5093836;28;20218;-73
2022/06/06 09:52:42;;;;;;;0.50;0.50;;;;;22.50;98399.00;;;;5090511;28;20598;-75
2022/06/06 09:59:12;;;;;;;0.40;0.40;;;;;22.90;98392.00;;;;5102148;28;20221;-77
2022/06/06 10:02:08;;;;;;;0.57;0.57;;;;;22.80;98391.00;;;;5085173;28;20244;-77
2022/06/06 10:05:13;;;;;;;0.70;0.70;;;;;22.60;98389.00;;;;5092927;28;20191;-75
2022/06/06 10:08:26;;;;;;;0.50;0.50;;;;;22.80;98388.00;;;;5093541;28;20190;-76
2022/06/06 10:11:34;;;;;;;0.77;0.77;;;;;22.60;98395.00;;;;5093586;28;20222;-75
2022/06/06 10:14:17;;;;;;;0.43;0.43;;;;;22.50;98381.00;;;;5093769;28;20210;-76
2022/06/06 10:17:04;;;;;;;0.60;0.60;;;;;22.20;98410.00;;;;5093546;28;20229;-76
2022/06/06 10:19:49;;;;;;;0.50;0.50;;;;;22.30;98401.00;;;;5093334;28;20206;-77
2022/06/06 10:22:46;;;;;;;0.50;0.50;;;;;22.40;98397.00;;;;5093529;28;20222;-71
2022/06/06 10:25:54;;;;;;;0.75;0.75;;;;;22.30;98392.00;;;;5052697;28;20226;-71
2022/06/06 10:28:42;;;;;;;0.77;0.77;;;;;22.20;98401.00;;;;5093578;28;20229;-72
2022/06/06 10:31:20;;;;;;;0.53;0.53;;;;;22.30;98396.00;;;;5093439;28;20546;-74
2022/06/06 10:34:12;;;;;;;0.50;0.50;;;;;22.40;98390.00;;;;5093370;28;20194;-72
2022/06/06 10:37:07;;;;;;;1.50;1.08;;;;;22.70;98378.00;;;;5084051;28;20271;-73
2022/06/06 10:40:01;;;;;;;1.27;0.75;;;;;23.20;98385.00;;;;5092773;28;20203;-72
2022/06/06 10:42:42;;;;;;;0.40;0.40;;;;;23.50;98385.00;;;;5076069;28;20213;-72
2022/06/06 10:45:24;;;;;;;0.47;0.47;;;;;23.80;98386.00;;;;5093169;28;20693;-73
2022/06/06 10:48:11;;;;;;;1.00;1.00;;;;;23.60;98374.00;;;;5093233;28;20233;-76
2022/06/06 10:54:18;;;;;;;0.70;0.70;;;;;24.00;98371.00;;;;5075195;28;20593;-76
2022/06/06 10:57:14;;;;;;;0.50;0.50;;;;;24.10;98356.00;;;;5092957;28;20210;-75
2022/06/06 11:00:13;;;;;;;0.47;0.47;;;;;24.40;98359.00;;;;5093046;28;20646;-75
2022/06/06 11:03:13;;;;;;;1.48;0.68;;;;;24.30;98358.00;;;;5093020;28;20584;-75
2022/06/06 11:06:24;;;;;;;0.60;0.60;;;;;24.30;98353.00;;;;5018300;28;20292;-75
2022/06/06 11:09:15;;;;;;;0.68;0.68;;;;;24.30;98350.00;;;;5092832;28;20219;-74
2022/06/06 11:12:14;;;;;;;0.60;0.60;;;;;23.90;98351.00;;;;5093848;28;20221;-78
2022/06/06 11:14:44;;;;;;;2.20;1.35;;;;;24.00;98350.00;;;;5059053;28;20214;-76
2022/06/06 11:17:40;;;;;;;0.50;0.50;;;;;24.40;98347.00;;;;5096256;28;20191;-76
2022/06/06 11:20:52;;;;;;;0.65;0.65;;;;;24.50;98347.00;;;;5096390;28;20229;-77
2022/06/06 11:23:26;;;;;;;0.90;0.90;;;;;24.40;98341.00;;;;5096192;28;20243;-76
2022/06/06 11:26:22;;;;;;;0.50;0.50;;;;;24.60;98341.00;;;;5096104;28;20195;-77
2022/06/06 11:29:20;;;;;;;0.63;0.63;;;;;24.80;98342.00;;;;5078904;28;20210;-76
2022/06/06 11:32:01;;;;;;;0.75;0.75;;;;;24.40;98346.00;;;;5095967;28;20195;-76
2022/06/06 11:35:21;;;;;;;0.60;0.60;;;24.80;31.40;24.10;98343.00;;;;5096066;28;20221;-75
2022/06/06 11:38:38;;;;;;;0.50;0.50;;;24.60;33.80;23.60;98338.00;;;;5082355;28;20276;-75
2022/06/06 11:41:31;;;;;;;2.33;1.38;;;24.20;32.50;23.70;98335.00;;;;5054701;28;20529;-75
2022/06/06 11:44:33;;;;;;;0.70;0.70;;;24.20;34.00;23.50;98336.00;;;;5095748;28;20223;-72
2022/06/06 11:47:36;;;;;;;1.30;1.20;;;24.00;34.10;23.20;98346.00;;;;5095798;28;20680;-77
2022/06/06 11:51:04;;;;;;;0.90;0.90;;;23.80;34.30;23.20;98341.00;;;;5095904;28;20230;-76
2022/06/06 11:54:22;;;;;;;0.55;0.55;;;23.70;35.70;23.20;98342.00;;;;5095697;28;20183;-75
2022/06/06 11:57:28;;;;;;;4.20;0.95;;;23.70;36.40;23.00;98344.00;;;;5095702;28;20205;-74
2022/06/06 12:00:12;;;;;;;0.70;0.70;;;23.50;37.00;22.90;98346.00;;;;5095624;28;20241;-73
2022/06/06 12:03:19;;;;;;;0.50;0.50;;;23.40;38.40;22.60;98346.00;;;;5100692;28;20187;-74
2022/06/06 12:06:27;;;;;;;0.70;0.70;;;23.10;37.30;22.50;98348.00;;;;5097420;28;20319;-75
2022/06/06 12:09:27;;;;;;;0.75;0.75;;;23.00;38.00;22.30;98346.00;;;;5077696;28;20598;-74
2022/06/06 12:12:57;;;;;;;0.50;0.50;;;22.80;38.90;22.40;98342.00;;;;5095491;28;20194;-74
2022/06/06 12:15:53;;;;;;;0.60;0.60;;;22.80;40.20;22.60;98337.00;;;;5095285;28;20218;-80
2022/06/06 12:18:54;;;;;;;0.60;0.60;;;23.00;41.20;22.90;98333.00;;;;5095313;28;20171;-78
2022/06/06 12:21:53;;;;;;;0.70;0.70;;;23.20;38.90;23.40;98325.00;;;;5095238;28;20242;-78
2022/06/06 12:25:12;;;;;;;0.55;0.55;;;23.50;40.60;23.60;98323.00;;;;5095242;28;20229;-77
2022/06/06 12:28:08;;;;;;;0.40;0.40;;;23.80;38.50;24.20;98322.00;;;;5094666;28;20271;-75
2022/06/06 12:31:13;;;;;;;0.60;0.60;;;24.30;38.30;25.20;98303.00;;;;5096556;28;20325;-77
2022/06/06 12:33:49;;;;;;;0.65;0.65;;;25.00;38.00;25.50;98318.00;;;;5095001;28;20206;-76
2022/06/06 12:36:22;;;;;;;0.50;0.50;;;25.60;30.20;24.90;98318.00;;;;5077104;28;20316;-75
2022/06/06 12:39:05;;;;;;;0.57;0.57;;;25.30;31.20;24.50;98315.00;;;;5095074;28;20198;-75
2022/06/06 12:41:56;;;;;;;0.50;0.50;;;24.90;32.60;24.20;98320.00;;;;5094878;28;20230;-77
2022/06/06 12:44:57;;;;;;;0.55;0.55;;;24.70;32.70;23.80;98295.00;;;;5095055;28;20242;-77
2022/06/06 12:48:04;;;;;;;0.60;0.60;;;24.40;33.70;23.50;98316.00;;;;5094778;28;20237;-76
2022/06/06 12:50:48;;;;;;;0.60;0.60;;;24.10;34.40;23.20;98321.00;;;;5094768;28;20259;-76
2022/06/06 12:54:25;;;;;;;0.40;0.40;;;23.80;35.00;22.90;98321.00;;;;5094893;28;20263;-76
2022/06/06 12:56:57;;;;;;;0.40;0.40;;;23.50;36.10;22.70;98317.00;;;;5094706;28;20252;-75
2022/06/06 12:59:46;;;;;;;0.43;0.43;;;23.20;36.60;22.60;98321.00;;;;5094878;28;20250;-76